sensor_id;sensor_type;location;lat;lon;timestamp;pressure;altitude;pressure_sealevel;temperature;humidity
58471;BME280;44258;51.288;12.068;2023-05-19T00:00:16;101455.69;;;13.02;44.08
58471;BME280;44258;51.288;12.068;2023-05-19T00:03:04;101444.09;;;13.00;43.93
58471;BME280;44258;51.288;12.068;2023-05-19T00:05:53;101444.16;;;12.98;44.02
58471;BME280;44258;51.288;12.068;2023-05-19T00:08:43;101435.91;;;13.01;44.28
58471;BME280;44258;51.288;12.068;2023-05-19T00:11:32;101446.56;;;13.04;43.85
58471;BME280;44258;51.288;12.068;2023-05-19T00:14:20;101437.28;;;13.10;43.74
58471;BME280;44258;51.288;12.068;2023-05-19T00:17:11;101439.03;;;13.11;43.58
58471;BME280;44258;51.288;12.068;2023-05-19T00:19:59;101438.41;;;12.87;43.88
58471;BME280;44258;51.288;12.068;2023-05-19T00:22:46;101433.22;;;12.63;44.32
58471;BME280;44258;51.288;12.068;2023-05-19T00:25:32;101437.91;;;12.79;44.34
58471;BME280;44258;51.288;12.068;2023-05-19T00:28:21;101433.34;;;12.41;45.27
58471;BME280;44258;51.288;12.068;2023-05-19T00:31:08;101434.31;;;12.78;44.22
58471;BME280;44258;51.288;12.068;2023-05-19T00:33:55;101428.13;;;12.95;43.96
58471;BME280;44258;51.288;12.068;2023-05-19T00:36:42;101428.91;;;12.97;43.63
58471;BME280;44258;51.288;12.068;2023-05-19T00:39:29;101422.72;;;12.76;44.26
58471;BME280;44258;51.288;12.068;2023-05-19T00:42:16;101416.31;;;12.79;44.45
58471;BME280;44258;51.288;12.068;2023-05-19T00:45:04;101421.22;;;13.07;43.72
58471;BME280;44258;51.288;12.068;2023-05-19T00:47:52;101419.78;;;13.00;43.63
58471;BME280;44258;51.288;12.068;2023-05-19T00:50:38;101420.72;;;12.99;43.80
58471;BME280;44258;51.288;12.068;2023-05-19T00:53:26;101421.97;;;12.53;44.46
58471;BME280;44258;51.288;12.068;2023-05-19T00:56:13;101418.53;;;12.31;45.25
58471;BME280;44258;51.288;12.068;2023-05-19T00:59:01;101415.13;;;11.86;46.00
58471;BME280;44258;51.288;12.068;2023-05-19T01:01:50;101420.59;;;12.05;45.78
58471;BME280;44258;51.288;12.068;2023-05-19T01:04:38;101418.19;;;12.39;45.09
58471;BME280;44258;51.288;12.068;2023-05-19T01:07:26;101427.50;;;12.31;45.03
58471;BME280;44258;51.288;12.068;2023-05-19T01:10:13;101418.16;;;12.20;45.22
58471;BME280;44258;51.288;12.068;2023-05-19T01:13:01;101414.72;;;12.16;45.19
58471;BME280;44258;51.288;12.068;2023-05-19T01:15:58;101420.94;;;12.37;45.01
58471;BME280;44258;51.288;12.068;2023-05-19T01:18:55;101415.53;;;12.18;45.40
58471;BME280;44258;51.288;12.068;2023-05-19T01:22:11;101419.28;;;12.34;45.42
58471;BME280;44258;51.288;12.068;2023-05-19T01:25:28;101419.41;;;12.31;45.21
58471;BME280;44258;51.288;12.068;2023-05-19T01:28:34;101413.38;;;12.45;45.04
58471;BME280;44258;51.288;12.068;2023-05-19T01:31:29;101417.09;;;12.62;44.48
58471;BME280;44258;51.288;12.068;2023-05-19T01:34:16;101415.28;;;12.43;45.00
58471;BME280;44258;51.288;12.068;2023-05-19T01:37:04;101420.94;;;12.37;45.45
58471;BME280;44258;51.288;12.068;2023-05-19T01:39:53;101425.75;;;12.30;45.15
58471;BME280;44258;51.288;12.068;2023-05-19T01:42:40;101417.84;;;12.46;44.74
58471;BME280;44258;51.288;12.068;2023-05-19T01:45:31;101423.53;;;12.40;44.58
58471;BME280;44258;51.288;12.068;2023-05-19T01:48:20;101433.44;;;11.78;45.89
58471;BME280;44258;51.288;12.068;2023-05-19T01:51:08;101426.16;;;12.01;45.37
58471;BME280;44258;51.288;12.068;2023-05-19T01:53:55;101422.19;;;12.30;44.84
58471;BME280;44258;51.288;12.068;2023-05-19T01:56:47;101428.53;;;12.29;45.11
58471;BME280;44258;51.288;12.068;2023-05-19T01:59:41;101428.13;;;12.38;44.20
58471;BME280;44258;51.288;12.068;2023-05-19T02:02:37;101417.56;;;12.13;45.02
58471;BME280;44258;51.288;12.068;2023-05-19T02:05:37;101422.41;;;11.84;45.54
58471;BME280;44258;51.288;12.068;2023-05-19T02:08:29;101423.41;;;11.19;47.39
58471;BME280;44258;51.288;12.068;2023-05-19T02:11:20;101426.03;;;11.20;47.46
58471;BME280;44258;51.288;12.068;2023-05-19T02:14:14;101412.38;;;11.25;47.26
58471;BME280;44258;51.288;12.068;2023-05-19T02:17:03;101420.72;;;11.61;46.25
58471;BME280;44258;51.288;12.068;2023-05-19T02:19:50;101412.44;;;11.23;47.32
58471;BME280;44258;51.288;12.068;2023-05-19T02:22:38;101412.25;;;11.06;47.98
58471;BME280;44258;51.288;12.068;2023-05-19T02:25:25;101412.38;;;11.67;46.82
58471;BME280;44258;51.288;12.068;2023-05-19T02:28:12;101410.53;;;11.68;46.18
58471;BME280;44258;51.288;12.068;2023-05-19T02:30:59;101410.53;;;11.68;46.12
58471;BME280;44258;51.288;12.068;2023-05-19T02:33:46;101411.50;;;10.79;48.73
58471;BME280;44258;51.288;12.068;2023-05-19T02:36:33;101411.59;;;11.43;46.76
58471;BME280;44258;51.288;12.068;2023-05-19T02:39:22;101415.53;;;11.57;46.69
58471;BME280;44258;51.288;12.068;2023-05-19T02:42:09;101414.09;;;11.26;47.46
58471;BME280;44258;51.288;12.068;2023-05-19T02:44:56;101412.75;;;10.93;48.70
58471;BME280;44258;51.288;12.068;2023-05-19T02:47:43;101413.25;;;10.58;49.52
58471;BME280;44258;51.288;12.068;2023-05-19T02:50:30;101403.88;;;10.68;49.64
58471;BME280;44258;51.288;12.068;2023-05-19T02:53:17;101407.34;;;10.24;50.82
58471;BME280;44258;51.288;12.068;2023-05-19T02:56:06;101411.56;;;10.55;50.04
58471;BME280;44258;51.288;12.068;2023-05-19T02:58:54;101404.44;;;10.76;49.72
58471;BME280;44258;51.288;12.068;2023-05-19T03:01:46;101407.72;;;10.13;51.53
58471;BME280;44258;51.288;12.068;2023-05-19T03:04:32;101403.81;;;10.69;50.03
58471;BME280;44258;51.288;12.068;2023-05-19T03:07:31;101409.09;;;10.02;51.88
58471;BME280;44258;51.288;12.068;2023-05-19T03:10:18;101415.69;;;9.66;52.78
58471;BME280;44258;51.288;12.068;2023-05-19T03:13:06;101401.38;;;10.16;51.26
58471;BME280;44258;51.288;12.068;2023-05-19T03:15:53;101404.59;;;10.49;50.67
58471;BME280;44258;51.288;12.068;2023-05-19T03:18:42;101409.91;;;10.51;50.30
58471;BME280;44258;51.288;12.068;2023-05-19T03:21:29;101415.22;;;10.29;51.02
58471;BME280;44258;51.288;12.068;2023-05-19T03:24:16;101412.25;;;10.60;50.28
58471;BME280;44258;51.288;12.068;2023-05-19T03:27:03;101404.78;;;9.71;52.56
58471;BME280;44258;51.288;12.068;2023-05-19T03:29:52;101410.66;;;9.82;52.43
58471;BME280;44258;51.288;12.068;2023-05-19T03:32:39;101408.50;;;10.17;51.72
58471;BME280;44258;51.288;12.068;2023-05-19T03:35:29;101407.75;;;9.88;52.45
58471;BME280;44258;51.288;12.068;2023-05-19T03:38:16;101409.69;;;10.33;51.38
58471;BME280;44258;51.288;12.068;2023-05-19T03:41:05;101412.31;;;10.35;51.30
58471;BME280;44258;51.288;12.068;2023-05-19T03:43:52;101413.09;;;10.61;50.35
58471;BME280;44258;51.288;12.068;2023-05-19T03:46:40;101408.91;;;10.06;51.57
58471;BME280;44258;51.288;12.068;2023-05-19T03:49:26;101412.09;;;9.92;52.70
58471;BME280;44258;51.288;12.068;2023-05-19T03:52:13;101417.75;;;10.10;52.12
58471;BME280;44258;51.288;12.068;2023-05-19T03:55:01;101414.84;;;9.66;53.44
58471;BME280;44258;51.288;12.068;2023-05-19T03:57:48;101425.84;;;9.83;53.19
58471;BME280;44258;51.288;12.068;2023-05-19T04:00:37;101426.78;;;10.07;52.74
58471;BME280;44258;51.288;12.068;2023-05-19T04:03:25;101422.88;;;9.66;53.80
58471;BME280;44258;51.288;12.068;2023-05-19T04:06:15;101415.91;;;10.10;52.52
58471;BME280;44258;51.288;12.068;2023-05-19T04:09:10;101422.13;;;10.12;51.99
58471;BME280;44258;51.288;12.068;2023-05-19T04:11:58;101422.84;;;10.41;51.74
58471;BME280;44258;51.288;12.068;2023-05-19T04:14:45;101421.53;;;10.75;51.16
58471;BME280;44258;51.288;12.068;2023-05-19T04:17:33;101424.16;;;11.00;49.97
58471;BME280;44258;51.288;12.068;2023-05-19T04:20:21;101415.69;;;10.87;50.54
58471;BME280;44258;51.288;12.068;2023-05-19T04:23:09;101416.84;;;11.04;50.48
58471;BME280;44258;51.288;12.068;2023-05-19T04:25:56;101413.38;;;11.22;49.81
58471;BME280;44258;51.288;12.068;2023-05-19T04:28:43;101409.44;;;10.40;52.26
58471;BME280;44258;51.288;12.068;2023-05-19T04:31:30;101418.16;;;10.93;50.92
58471;BME280;44258;51.288;12.068;2023-05-19T04:34:18;101418.56;;;10.59;51.46
58471;BME280;44258;51.288;12.068;2023-05-19T04:37:09;101425.25;;;10.94;50.87
58471;BME280;44258;51.288;12.068;2023-05-19T04:39:56;101425.56;;;11.31;49.96
58471;BME280;44258;51.288;12.068;2023-05-19T04:42:43;101424.34;;;10.96;50.75
58471;BME280;44258;51.288;12.068;2023-05-19T04:45:30;101423.44;;;10.95;50.69
58471;BME280;44258;51.288;12.068;2023-05-19T04:48:18;101431.53;;;11.17;50.62
58471;BME280;44258;51.288;12.068;2023-05-19T04:51:06;101424.75;;;11.51;49.68
58471;BME280;44258;51.288;12.068;2023-05-19T04:53:54;101427.81;;;11.42;50.10
58471;BME280;44258;51.288;12.068;2023-05-19T04:56:41;101427.47;;;11.29;50.37
58471;BME280;44258;51.288;12.068;2023-05-19T04:59:28;101429.66;;;11.19;51.01
58471;BME280;44258;51.288;12.068;2023-05-19T05:02:15;101426.38;;;10.89;51.62
58471;BME280;44258;51.288;12.068;2023-05-19T05:05:02;101433.19;;;10.28;53.58
58471;BME280;44258;51.288;12.068;2023-05-19T05:07:50;101432.53;;;10.45;53.48
58471;BME280;44258;51.288;12.068;2023-05-19T05:10:43;101433.47;;;10.68;52.81
58471;BME280;44258;51.288;12.068;2023-05-19T05:13:32;101424.22;;;10.75;52.76
58471;BME280;44258;51.288;12.068;2023-05-19T05:16:19;101431.31;;;11.22;51.67
58471;BME280;44258;51.288;12.068;2023-05-19T05:19:10;101429.84;;;11.37;51.61
58471;BME280;44258;51.288;12.068;2023-05-19T05:21:57;101429.84;;;11.14;52.02
58471;BME280;44258;51.288;12.068;2023-05-19T05:24:44;101434.13;;;11.63;50.82
58471;BME280;44258;51.288;12.068;2023-05-19T05:27:33;101436.47;;;11.70;50.32
58471;BME280;44258;51.288;12.068;2023-05-19T05:30:20;101431.81;;;11.53;50.80
58471;BME280;44258;51.288;12.068;2023-05-19T05:33:07;101427.97;;;11.59;51.23
58471;BME280;44258;51.288;12.068;2023-05-19T05:35:54;101432.97;;;11.68;50.52
58471;BME280;44258;51.288;12.068;2023-05-19T05:38:41;101425.22;;;11.61;51.21
58471;BME280;44258;51.288;12.068;2023-05-19T05:41:27;101427.19;;;11.35;51.39
58471;BME280;44258;51.288;12.068;2023-05-19T05:44:20;101426.31;;;12.18;49.53
58471;BME280;44258;51.288;12.068;2023-05-19T05:47:08;101433.13;;;11.43;51.25
58471;BME280;44258;51.288;12.068;2023-05-19T05:49:56;101436.06;;;10.71;53.88
58471;BME280;44258;51.288;12.068;2023-05-19T05:52:45;101445.28;;;11.09;52.29
58471;BME280;44258;51.288;12.068;2023-05-19T05:55:32;101431.00;;;11.72;52.02
58471;BME280;44258;51.288;12.068;2023-05-19T05:58:19;101439.81;;;12.18;50.69
58471;BME280;44258;51.288;12.068;2023-05-19T06:01:07;101437.25;;;12.73;49.59
58471;BME280;44258;51.288;12.068;2023-05-19T06:03:55;101444.69;;;12.29;49.91
58471;BME280;44258;51.288;12.068;2023-05-19T06:06:42;101441.56;;;11.56;51.62
58471;BME280;44258;51.288;12.068;2023-05-19T06:09:29;101446.44;;;11.89;51.25
58471;BME280;44258;51.288;12.068;2023-05-19T06:12:17;101446.78;;;11.81;51.85
58471;BME280;44258;51.288;12.068;2023-05-19T06:15:05;101443.94;;;12.84;49.07
58471;BME280;44258;51.288;12.068;2023-05-19T06:17:53;101437.88;;;12.41;49.79
58471;BME280;44258;51.288;12.068;2023-05-19T06:20:40;101431.91;;;12.34;50.19
58471;BME280;44258;51.288;12.068;2023-05-19T06:23:29;101433.97;;;12.27;51.03
58471;BME280;44258;51.288;12.068;2023-05-19T06:26:16;101440.22;;;12.48;50.38
58471;BME280;44258;51.288;12.068;2023-05-19T06:29:03;101436.06;;;12.79;50.08
58471;BME280;44258;51.288;12.068;2023-05-19T06:31:50;101442.63;;;12.92;49.51
58471;BME280;44258;51.288;12.068;2023-05-19T06:34:38;101453.25;;;12.39;49.90
58471;BME280;44258;51.288;12.068;2023-05-19T06:37:28;101442.81;;;13.07;49.90
58471;BME280;44258;51.288;12.068;2023-05-19T06:40:15;101453.88;;;12.83;49.77
58471;BME280;44258;51.288;12.068;2023-05-19T06:43:02;101454.00;;;12.61;49.76
58471;BME280;44258;51.288;12.068;2023-05-19T06:45:49;101451.00;;;12.86;50.20
58471;BME280;44258;51.288;12.068;2023-05-19T06:48:36;101453.59;;;13.45;49.65
58471;BME280;44258;51.288;12.068;2023-05-19T06:51:24;101452.97;;;13.92;47.26
58471;BME280;44258;51.288;12.068;2023-05-19T06:54:11;101451.84;;;14.13;47.40
58471;BME280;44258;51.288;12.068;2023-05-19T06:57:00;101452.72;;;13.44;48.84
58471;BME280;44258;51.288;12.068;2023-05-19T06:59:47;101444.69;;;13.43;48.88
58471;BME280;44258;51.288;12.068;2023-05-19T07:02:33;101448.28;;;13.95;47.96
58471;BME280;44258;51.288;12.068;2023-05-19T07:05:20;101442.88;;;13.95;49.15
58471;BME280;44258;51.288;12.068;2023-05-19T07:08:09;101443.56;;;14.17;47.11
58471;BME280;44258;51.288;12.068;2023-05-19T07:10:55;101446.53;;;14.79;46.74
58471;BME280;44258;51.288;12.068;2023-05-19T07:13:42;101437.13;;;14.37;48.72
58471;BME280;44258;51.288;12.068;2023-05-19T07:16:29;101437.06;;;14.54;46.45
58471;BME280;44258;51.288;12.068;2023-05-19T07:19:16;101436.75;;;14.09;48.03
58471;BME280;44258;51.288;12.068;2023-05-19T07:22:05;101432.97;;;14.63;47.99
58471;BME280;44258;51.288;12.068;2023-05-19T07:24:53;101434.75;;;15.43;45.42
58471;BME280;44258;51.288;12.068;2023-05-19T07:27:41;101431.81;;;14.51;45.56
58471;BME280;44258;51.288;12.068;2023-05-19T07:30:28;101433.16;;;14.91;46.04
58471;BME280;44258;51.288;12.068;2023-05-19T07:33:15;101430.97;;;14.66;45.78
58471;BME280;44258;51.288;12.068;2023-05-19T07:36:01;101425.97;;;15.84;43.77
58471;BME280;44258;51.288;12.068;2023-05-19T07:38:49;101431.00;;;16.35;42.42
58471;BME280;44258;51.288;12.068;2023-05-19T07:41:37;101427.84;;;15.68;43.37
58471;BME280;44258;51.288;12.068;2023-05-19T07:44:24;101428.03;;;15.65;44.47
58471;BME280;44258;51.288;12.068;2023-05-19T07:47:11;101429.09;;;15.62;43.43
58471;BME280;44258;51.288;12.068;2023-05-19T07:49:58;101424.97;;;16.30;41.86
58471;BME280;44258;51.288;12.068;2023-05-19T07:52:46;101423.47;;;15.19;44.65
58471;BME280;44258;51.288;12.068;2023-05-19T07:55:33;101410.56;;;15.54;44.15
58471;BME280;44258;51.288;12.068;2023-05-19T07:58:21;101414.78;;;15.28;43.53
58471;BME280;44258;51.288;12.068;2023-05-19T08:01:10;101418.19;;;14.19;45.88
58471;BME280;44258;51.288;12.068;2023-05-19T08:03:57;101420.22;;;14.65;45.10
58471;BME280;44258;51.288;12.068;2023-05-19T08:06:44;101417.88;;;15.68;43.16
58471;BME280;44258;51.288;12.068;2023-05-19T08:09:30;101414.72;;;16.49;41.75
58471;BME280;44258;51.288;12.068;2023-05-19T08:12:17;101414.13;;;15.25;43.69
58471;BME280;44258;51.288;12.068;2023-05-19T08:15:06;101422.59;;;16.09;42.17
58471;BME280;44258;51.288;12.068;2023-05-19T08:17:55;101419.84;;;16.40;40.85
58471;BME280;44258;51.288;12.068;2023-05-19T08:20:42;101409.03;;;16.81;39.81
58471;BME280;44258;51.288;12.068;2023-05-19T08:23:30;101408.50;;;16.47;39.65
58471;BME280;44258;51.288;12.068;2023-05-19T08:26:17;101404.59;;;16.23;41.38
58471;BME280;44258;51.288;12.068;2023-05-19T08:29:04;101391.13;;;16.50;40.04
58471;BME280;44258;51.288;12.068;2023-05-19T08:31:52;101402.75;;;16.23;40.51
58471;BME280;44258;51.288;12.068;2023-05-19T08:34:39;101408.84;;;16.84;39.02
58471;BME280;44258;51.288;12.068;2023-05-19T08:37:25;101402.09;;;17.31;38.70
58471;BME280;44258;51.288;12.068;2023-05-19T08:40:15;101394.03;;;17.57;38.84
58471;BME280;44258;51.288;12.068;2023-05-19T08:43:03;101390.84;;;16.96;38.86
58471;BME280;44258;51.288;12.068;2023-05-19T08:45:51;101393.66;;;16.39;39.91
58471;BME280;44258;51.288;12.068;2023-05-19T08:48:41;101386.78;;;16.33;38.82
58471;BME280;44258;51.288;12.068;2023-05-19T08:51:32;101381.91;;;15.50;40.53
58471;BME280;44258;51.288;12.068;2023-05-19T08:54:24;101383.44;;;16.13;40.24
58471;BME280;44258;51.288;12.068;2023-05-19T08:57:18;101380.28;;;16.91;38.18
58471;BME280;44258;51.288;12.068;2023-05-19T09:00:11;101374.41;;;16.70;39.59
58471;BME280;44258;51.288;12.068;2023-05-19T09:02:59;101372.50;;;16.15;38.06
58471;BME280;44258;51.288;12.068;2023-05-19T09:05:48;101376.50;;;16.94;38.10
58471;BME280;44258;51.288;12.068;2023-05-19T09:08:35;101371.91;;;16.24;36.84
58471;BME280;44258;51.288;12.068;2023-05-19T09:11:22;101378.50;;;15.01;39.75
58471;BME280;44258;51.288;12.068;2023-05-19T09:14:09;101368.84;;;15.57;39.66
58471;BME280;44258;51.288;12.068;2023-05-19T09:16:56;101363.59;;;15.24;40.58
58471;BME280;44258;51.288;12.068;2023-05-19T09:19:43;101361.19;;;15.03;41.31
58471;BME280;44258;51.288;12.068;2023-05-19T09:22:33;101365.66;;;15.65;40.54
58471;BME280;44258;51.288;12.068;2023-05-19T09:25:25;101361.66;;;16.44;39.35
58471;BME280;44258;51.288;12.068;2023-05-19T09:28:12;101362.19;;;15.17;40.61
58471;BME280;44258;51.288;12.068;2023-05-19T09:31:00;101358.03;;;14.95;42.17
58471;BME280;44258;51.288;12.068;2023-05-19T09:33:52;101350.47;;;15.62;41.47
58471;BME280;44258;51.288;12.068;2023-05-19T09:36:39;101354.75;;;16.24;40.11
58471;BME280;44258;51.288;12.068;2023-05-19T09:39:28;101351.75;;;16.43;39.58
58471;BME280;44258;51.288;12.068;2023-05-19T09:42:15;101354.38;;;15.26;37.51
58471;BME280;44258;51.288;12.068;2023-05-19T09:45:03;101350.53;;;15.46;38.62
58471;BME280;44258;51.288;12.068;2023-05-19T09:47:50;101348.09;;;16.44;38.54
58471;BME280;44258;51.288;12.068;2023-05-19T09:50:36;101352.66;;;16.00;40.59
58471;BME280;44258;51.288;12.068;2023-05-19T09:53:28;101343.81;;;16.54;39.66
58471;BME280;44258;51.288;12.068;2023-05-19T09:56:17;101352.13;;;16.51;38.65
58471;BME280;44258;51.288;12.068;2023-05-19T09:59:08;101350.59;;;17.43;37.16
58471;BME280;44258;51.288;12.068;2023-05-19T10:01:56;101340.13;;;16.41;37.24
58471;BME280;44258;51.288;12.068;2023-05-19T10:04:43;101344.97;;;17.84;35.22
58471;BME280;44258;51.288;12.068;2023-05-19T10:07:32;101336.31;;;16.72;38.06
58471;BME280;44258;51.288;12.068;2023-05-19T10:10:20;101328.03;;;17.01;38.21
58471;BME280;44258;51.288;12.068;2023-05-19T10:13:09;101335.88;;;16.37;38.51
58471;BME280;44258;51.288;12.068;2023-05-19T10:15:57;101340.16;;;16.82;37.36
58471;BME280;44258;51.288;12.068;2023-05-19T10:18:44;101330.25;;;17.08;35.56
58471;BME280;44258;51.288;12.068;2023-05-19T10:21:31;101324.91;;;17.07;35.83
58471;BME280;44258;51.288;12.068;2023-05-19T10:24:18;101331.03;;;17.76;34.31
58471;BME280;44258;51.288;12.068;2023-05-19T10:27:09;101319.69;;;16.77;36.01
58471;BME280;44258;51.288;12.068;2023-05-19T10:30:03;101323.75;;;17.51;34.74
58471;BME280;44258;51.288;12.068;2023-05-19T10:32:52;101321.78;;;17.53;36.18
58471;BME280;44258;51.288;12.068;2023-05-19T10:35:54;101314.13;;;16.65;37.33
58471;BME280;44258;51.288;12.068;2023-05-19T10:38:47;101312.97;;;17.75;34.78
58471;BME280;44258;51.288;12.068;2023-05-19T10:41:43;101315.25;;;18.07;34.75
58471;BME280;44258;51.288;12.068;2023-05-19T10:44:41;101328.75;;;17.70;35.29
58471;BME280;44258;51.288;12.068;2023-05-19T10:47:33;101327.75;;;17.45;35.71
58471;BME280;44258;51.288;12.068;2023-05-19T10:50:20;101318.97;;;17.14;35.06
58471;BME280;44258;51.288;12.068;2023-05-19T10:53:13;101319.75;;;16.62;36.49
58471;BME280;44258;51.288;12.068;2023-05-19T10:56:04;101319.19;;;16.43;37.81
58471;BME280;44258;51.288;12.068;2023-05-19T10:58:55;101312.22;;;17.47;35.88
58471;BME280;44258;51.288;12.068;2023-05-19T11:01:42;101306.13;;;18.21;34.72
58471;BME280;44258;51.288;12.068;2023-05-19T11:04:44;101299.06;;;18.18;35.06
58471;BME280;44258;51.288;12.068;2023-05-19T11:07:32;101306.31;;;18.30;34.25
58471;BME280;44258;51.288;12.068;2023-05-19T11:10:21;101297.06;;;18.33;33.38
58471;BME280;44258;51.288;12.068;2023-05-19T11:13:18;101297.84;;;18.09;33.27
58471;BME280;44258;51.288;12.068;2023-05-19T11:16:06;101289.63;;;18.96;31.63
58471;BME280;44258;51.288;12.068;2023-05-19T11:18:53;101295.53;;;18.90;30.79
58471;BME280;44258;51.288;12.068;2023-05-19T11:21:46;101293.94;;;17.62;33.52
58471;BME280;44258;51.288;12.068;2023-05-19T11:24:35;101292.06;;;18.27;32.85
58471;BME280;44258;51.288;12.068;2023-05-19T11:27:25;101291.78;;;17.67;33.71
58471;BME280;44258;51.288;12.068;2023-05-19T11:30:12;101283.16;;;18.12;33.62
58471;BME280;44258;51.288;12.068;2023-05-19T11:33:02;101285.84;;;17.99;33.21
58471;BME280;44258;51.288;12.068;2023-05-19T11:35:49;101284.69;;;17.90;34.70
58471;BME280;44258;51.288;12.068;2023-05-19T11:38:38;101288.28;;;18.53;32.89
58471;BME280;44258;51.288;12.068;2023-05-19T11:41:25;101281.31;;;17.36;32.96
58471;BME280;44258;51.288;12.068;2023-05-19T11:44:14;101275.63;;;18.28;32.44
58471;BME280;44258;51.288;12.068;2023-05-19T11:47:01;101280.56;;;18.47;33.96
58471;BME280;44258;51.288;12.068;2023-05-19T11:49:51;101292.94;;;18.02;34.25
58471;BME280;44258;51.288;12.068;2023-05-19T11:52:43;101278.22;;;18.54;33.89
58471;BME280;44258;51.288;12.068;2023-05-19T11:55:31;101270.81;;;18.80;33.08
58471;BME280;44258;51.288;12.068;2023-05-19T11:58:23;101275.41;;;17.93;33.74
58471;BME280;44258;51.288;12.068;2023-05-19T12:01:11;101270.56;;;18.35;33.90
58471;BME280;44258;51.288;12.068;2023-05-19T12:04:00;101267.22;;;19.39;33.48
58471;BME280;44258;51.288;12.068;2023-05-19T12:06:47;101263.47;;;17.96;37.21
58471;BME280;44258;51.288;12.068;2023-05-19T12:09:35;101263.59;;;18.68;34.78
58471;BME280;44258;51.288;12.068;2023-05-19T12:12:25;101266.50;;;17.91;36.13
58471;BME280;44258;51.288;12.068;2023-05-19T12:15:17;101263.16;;;17.62;36.94
58471;BME280;44258;51.288;12.068;2023-05-19T12:18:05;101238.13;;;17.69;37.69
58471;BME280;44258;51.288;12.068;2023-05-19T12:20:52;101251.66;;;18.21;36.68
58471;BME280;44258;51.288;12.068;2023-05-19T12:23:40;101252.00;;;18.77;35.39
58471;BME280;44258;51.288;12.068;2023-05-19T12:26:28;101252.44;;;18.95;34.99
58471;BME280;44258;51.288;12.068;2023-05-19T12:29:16;101249.31;;;17.90;36.96
58471;BME280;44258;51.288;12.068;2023-05-19T12:32:03;101250.38;;;18.13;36.41
58471;BME280;44258;51.288;12.068;2023-05-19T12:34:50;101244.50;;;18.92;35.42
58471;BME280;44258;51.288;12.068;2023-05-19T12:37:40;101248.34;;;18.41;35.03
58471;BME280;44258;51.288;12.068;2023-05-19T12:40:28;101245.03;;;18.97;34.77
58471;BME280;44258;51.288;12.068;2023-05-19T12:43:19;101239.78;;;18.59;35.17
58471;BME280;44258;51.288;12.068;2023-05-19T12:46:11;101235.00;;;18.73;33.96
58471;BME280;44258;51.288;12.068;2023-05-19T12:49:00;101230.41;;;17.63;36.03
58471;BME280;44258;51.288;12.068;2023-05-19T12:51:50;101221.09;;;18.04;36.86
58471;BME280;44258;51.288;12.068;2023-05-19T12:54:37;101225.84;;;18.74;35.42
58471;BME280;44258;51.288;12.068;2023-05-19T12:57:25;101224.25;;;17.98;37.56
58471;BME280;44258;51.288;12.068;2023-05-19T13:00:13;101222.41;;;17.99;37.98
58471;BME280;44258;51.288;12.068;2023-05-19T13:03:04;101219.47;;;17.89;36.09
58471;BME280;44258;51.288;12.068;2023-05-19T13:05:52;101223.16;;;18.50;35.88
58471;BME280;44258;51.288;12.068;2023-05-19T13:08:40;101218.50;;;17.90;36.21
58471;BME280;44258;51.288;12.068;2023-05-19T13:11:27;101219.06;;;17.57;38.37
58471;BME280;44258;51.288;12.068;2023-05-19T13:14:14;101220.44;;;18.01;36.31
58471;BME280;44258;51.288;12.068;2023-05-19T13:17:07;101216.47;;;18.54;34.48
58471;BME280;44258;51.288;12.068;2023-05-19T13:19:55;101216.72;;;18.87;34.56
58471;BME280;44258;51.288;12.068;2023-05-19T13:22:44;101206.22;;;19.18;33.68
58471;BME280;44258;51.288;12.068;2023-05-19T13:25:31;101207.44;;;19.25;34.67
58471;BME280;44258;51.288;12.068;2023-05-19T13:28:20;101213.56;;;18.45;36.13
58471;BME280;44258;51.288;12.068;2023-05-19T13:31:07;101202.44;;;18.48;35.77
58471;BME280;44258;51.288;12.068;2023-05-19T13:33:54;101212.25;;;18.86;35.59
58471;BME280;44258;51.288;12.068;2023-05-19T13:36:43;101211.78;;;19.16;34.27
58471;BME280;44258;51.288;12.068;2023-05-19T13:39:32;101205.63;;;19.59;33.41
58471;BME280;44258;51.288;12.068;2023-05-19T13:42:19;101206.88;;;19.55;33.05
58471;BME280;44258;51.288;12.068;2023-05-19T13:45:07;101211.50;;;17.99;35.13
58471;BME280;44258;51.288;12.068;2023-05-19T13:47:54;101206.59;;;18.17;34.78
58471;BME280;44258;51.288;12.068;2023-05-19T13:50:41;101199.59;;;18.73;33.69
58471;BME280;44258;51.288;12.068;2023-05-19T13:53:29;101200.94;;;18.44;35.70
58471;BME280;44258;51.288;12.068;2023-05-19T13:56:17;101214.84;;;18.52;34.22
58471;BME280;44258;51.288;12.068;2023-05-19T13:59:04;101201.84;;;18.56;34.61
58471;BME280;44258;51.288;12.068;2023-05-19T14:01:51;101194.25;;;19.07;32.99
58471;BME280;44258;51.288;12.068;2023-05-19T14:04:39;101193.78;;;17.30;35.55
58471;BME280;44258;51.288;12.068;2023-05-19T14:07:26;101190.69;;;18.47;34.58
58471;BME280;44258;51.288;12.068;2023-05-19T14:10:15;101182.78;;;17.94;35.70
58471;BME280;44258;51.288;12.068;2023-05-19T14:13:02;101175.81;;;19.00;34.61
58471;BME280;44258;51.288;12.068;2023-05-19T14:15:49;101178.28;;;18.43;34.66
58471;BME280;44258;51.288;12.068;2023-05-19T14:18:36;101186.81;;;18.98;33.90
58471;BME280;44258;51.288;12.068;2023-05-19T14:21:23;101187.94;;;18.71;33.79
58471;BME280;44258;51.288;12.068;2023-05-19T14:24:10;101180.94;;;19.38;33.85
58471;BME280;44258;51.288;12.068;2023-05-19T14:26:58;101187.56;;;19.11;34.51
58471;BME280;44258;51.288;12.068;2023-05-19T14:29:45;101185.41;;;19.84;33.02